createdAt,value
2019-03-24T00:01:40.775Z,4.30
2019-03-24T00:04:02.744Z,4.30
2019-03-24T00:06:31.268Z,4.20
2019-03-24T00:08:59.718Z,4.20
2019-03-24T00:11:28.148Z,4.20
2019-03-24T00:13:56.600Z,4.10
2019-03-24T00:16:25.024Z,4.10
2019-03-24T00:18:53.462Z,4.00
2019-03-24T00:21:21.866Z,4.00
2019-03-24T00:23:50.371Z,4.00
2019-03-24T00:26:18.855Z,4.10
2019-03-24T00:28:47.292Z,4.00
2019-03-24T00:31:15.715Z,3.90
2019-03-24T00:33:44.165Z,4.00
2019-03-24T00:36:12.545Z,3.90
2019-03-24T00:38:41.009Z,3.90
2019-03-24T00:41:09.496Z,3.80
2019-03-24T00:43:37.953Z,3.80
2019-03-24T00:46:06.358Z,3.80
2019-03-24T00:48:34.811Z,3.70
2019-03-24T00:51:03.212Z,3.70
2019-03-24T00:53:31.653Z,3.70
2019-03-24T00:56:00.063Z,3.70
2019-03-24T00:58:28.500Z,3.70
2019-03-24T01:00:56.901Z,3.70
2019-03-24T01:03:25.446Z,3.70
2019-03-24T01:05:53.976Z,3.80
2019-03-24T01:08:22.515Z,3.90
2019-03-24T01:10:50.922Z,3.90
2019-03-24T01:13:19.393Z,3.70
2019-03-24T01:15:48.357Z,3.60
2019-03-24T01:18:16.868Z,3.60
2019-03-24T01:20:45.367Z,3.60
2019-03-24T01:23:13.812Z,3.50
2019-03-24T01:25:42.266Z,3.50
2019-03-24T01:28:10.680Z,3.40
2019-03-24T01:30:39.124Z,3.30
2019-03-24T01:33:07.624Z,3.20
2019-03-24T01:35:36.049Z,3.10
2019-03-24T01:38:04.541Z,3.00
2019-03-24T01:40:33.291Z,3.00
2019-03-24T01:43:01.877Z,3.00
2019-03-24T01:45:30.364Z,2.90
2019-03-24T01:47:58.784Z,2.90
2019-03-24T01:50:27.232Z,2.90
2019-03-24T01:52:55.662Z,2.80
2019-03-24T01:55:24.126Z,2.80
2019-03-24T01:57:52.564Z,2.70
2019-03-24T02:00:21.096Z,2.80
2019-03-24T02:02:49.521Z,2.80
2019-03-24T02:05:17.956Z,2.80
2019-03-24T02:07:46.446Z,2.90
2019-03-24T02:10:15.848Z,3.10
2019-03-24T02:12:44.281Z,3.20
2019-03-24T02:15:13.091Z,3.20
2019-03-24T02:17:41.583Z,3.10
2019-03-24T02:20:10.491Z,3.00
2019-03-24T02:22:38.978Z,2.90
2019-03-24T02:25:08.068Z,2.70
2019-03-24T02:27:36.550Z,2.60
2019-03-24T02:30:08.749Z,2.50
2019-03-24T02:32:37.310Z,2.40
2019-03-24T02:35:07.164Z,2.40
2019-03-24T02:37:35.940Z,2.30
2019-03-24T02:40:09.167Z,2.30
2019-03-24T02:42:37.624Z,2.30
2019-03-24T02:45:07.197Z,2.30
2019-03-24T02:47:35.638Z,2.30
2019-03-24T02:50:04.799Z,2.20
2019-03-24T02:52:33.244Z,2.10
2019-03-24T02:55:01.747Z,2.10
2019-03-24T02:57:30.195Z,2.10
2019-03-24T02:59:58.610Z,2.10
2019-03-24T03:02:27.077Z,2.10
2019-03-24T03:04:55.501Z,2.10
2019-03-24T03:07:23.939Z,2.10
2019-03-24T03:09:52.466Z,2.10
2019-03-24T03:12:20.913Z,2.10
2019-03-24T03:14:49.320Z,2.10
2019-03-24T03:17:17.830Z,2.20
2019-03-24T03:19:46.321Z,2.20
2019-03-24T03:22:14.769Z,2.10
2019-03-24T03:24:43.186Z,2.00
2019-03-24T03:27:11.633Z,2.00
2019-03-24T03:29:40.072Z,2.00
2019-03-24T03:32:08.516Z,2.00
2019-03-24T03:34:36.952Z,2.00
2019-03-24T03:37:05.477Z,2.00
2019-03-24T03:39:33.924Z,2.00
2019-03-24T03:42:02.501Z,2.00
2019-03-24T03:44:30.947Z,2.00
2019-03-24T03:46:59.371Z,1.90
2019-03-24T03:49:27.829Z,1.80
2019-03-24T03:51:56.250Z,1.70
2019-03-24T03:54:24.735Z,1.70
2019-03-24T03:56:53.279Z,1.70
2019-03-24T03:59:21.717Z,1.70
2019-03-24T04:01:50.143Z,1.60
2019-03-24T04:04:18.573Z,1.60
2019-03-24T04:06:47.013Z,1.50
2019-03-24T04:09:15.467Z,1.50
2019-03-24T04:11:43.882Z,1.50
2019-03-24T04:14:12.326Z,1.40
2019-03-24T04:16:40.759Z,1.40
2019-03-24T04:19:09.213Z,1.40
2019-03-24T04:21:37.625Z,1.40
2019-03-24T04:24:06.069Z,1.40
2019-03-24T04:26:34.497Z,1.40
2019-03-24T04:29:02.943Z,1.40
2019-03-24T04:31:31.348Z,1.40
2019-03-24T04:33:59.813Z,1.50
2019-03-24T04:36:28.282Z,1.60
2019-03-24T04:38:56.713Z,1.60
2019-03-24T04:41:25.163Z,1.50
2019-03-24T04:43:53.572Z,1.50
2019-03-24T04:46:22.014Z,1.50
2019-03-24T04:48:50.432Z,1.50
2019-03-24T04:51:18.878Z,1.50
2019-03-24T04:53:47.290Z,1.50
2019-03-24T04:56:15.716Z,1.50
2019-03-24T04:58:44.138Z,1.50
2019-03-24T05:01:12.570Z,1.50
2019-03-24T05:03:41.076Z,1.40
2019-03-24T05:06:09.595Z,1.40
2019-03-24T05:08:38.157Z,1.30
2019-03-24T05:11:06.601Z,1.20
2019-03-24T05:13:35.027Z,1.10
2019-03-24T05:16:03.468Z,1.10
2019-03-24T05:18:31.914Z,1.20
2019-03-24T05:21:00.409Z,1.30
2019-03-24T05:23:28.874Z,1.30
2019-03-24T05:25:57.287Z,1.40
2019-03-24T05:28:25.728Z,1.40
2019-03-24T05:30:54.234Z,1.40
2019-03-24T05:33:22.681Z,1.40
2019-03-24T05:35:51.098Z,1.40
2019-03-24T05:38:19.512Z,1.50
2019-03-24T05:40:47.948Z,1.70
2019-03-24T05:43:16.383Z,1.80
2019-03-24T05:45:44.825Z,1.70
2019-03-24T05:48:13.348Z,1.60
2019-03-24T05:50:41.772Z,1.40
2019-03-24T05:53:10.222Z,1.30
2019-03-24T05:55:38.637Z,1.20
2019-03-24T05:58:07.081Z,1.20
2019-03-24T06:00:35.508Z,1.20
2019-03-24T06:03:03.965Z,1.20
2019-03-24T06:05:32.391Z,1.20
2019-03-24T06:08:00.844Z,1.30
2019-03-24T06:10:29.286Z,1.30
2019-03-24T06:12:57.772Z,1.30
2019-03-24T06:15:26.213Z,1.30
2019-03-24T06:17:54.707Z,1.30
2019-03-24T06:20:23.149Z,1.40
2019-03-24T06:22:51.571Z,1.50
2019-03-24T06:25:20.040Z,1.50
2019-03-24T06:27:48.514Z,1.50
2019-03-24T06:30:17.084Z,1.50
2019-03-24T06:32:45.521Z,1.60
2019-03-24T06:35:14.032Z,1.70
2019-03-24T06:37:42.449Z,1.70
2019-03-24T06:40:11.221Z,1.70
2019-03-24T06:42:39.636Z,1.80
2019-03-24T06:45:08.724Z,1.80
2019-03-24T06:47:37.138Z,2.00
2019-03-24T06:50:07.342Z,2.00
2019-03-24T06:52:35.909Z,2.10
2019-03-24T06:55:04.717Z,2.30
2019-03-24T06:57:33.195Z,2.40
2019-03-24T07:00:01.621Z,2.70
2019-03-24T07:02:30.129Z,3.00
2019-03-24T07:04:58.616Z,3.20
2019-03-24T07:07:27.020Z,3.30
2019-03-24T07:09:55.453Z,3.40
2019-03-24T07:12:23.878Z,3.50
2019-03-24T07:14:52.326Z,3.70
2019-03-24T07:17:20.758Z,3.80
2019-03-24T07:19:49.200Z,3.90
2019-03-24T07:22:17.636Z,4.10
2019-03-24T07:24:46.048Z,4.10
2019-03-24T07:27:14.491Z,4.30
2019-03-24T07:29:42.914Z,4.30
2019-03-24T07:32:11.421Z,4.30
2019-03-24T07:34:39.836Z,4.50
2019-03-24T07:37:08.286Z,4.60
2019-03-24T07:39:36.701Z,4.60
2019-03-24T07:42:05.657Z,4.70
2019-03-24T07:44:34.140Z,4.80
2019-03-24T07:47:05.619Z,4.90
2019-03-24T07:49:34.081Z,4.90
2019-03-24T07:52:02.546Z,5.10
2019-03-24T07:54:30.978Z,5.30
2019-03-24T07:56:59.416Z,5.30
2019-03-24T07:59:27.922Z,5.50
2019-03-24T08:01:56.358Z,5.60
2019-03-24T08:04:24.814Z,5.70
2019-03-24T08:06:53.240Z,5.80
2019-03-24T08:09:21.700Z,5.90
2019-03-24T08:11:50.137Z,6.10
2019-03-24T08:14:18.572Z,6.20
2019-03-24T08:16:47.042Z,6.30
2019-03-24T08:19:15.492Z,6.40
2019-03-24T08:21:43.937Z,6.50
2019-03-24T08:24:12.534Z,6.70
2019-03-24T08:26:41.039Z,6.90
2019-03-24T08:29:11.510Z,7.00
2019-03-24T08:31:40.005Z,7.20
2019-03-24T08:34:09.155Z,7.30
2019-03-24T08:36:37.610Z,7.50
2019-03-24T08:39:06.615Z,7.70
2019-03-24T08:41:35.130Z,7.70
2019-03-24T08:44:03.733Z,7.80
2019-03-24T08:46:32.250Z,7.80
2019-03-24T08:49:00.808Z,7.90
2019-03-24T08:51:29.216Z,8.00
2019-03-24T08:53:57.736Z,8.20
2019-03-24T08:56:26.198Z,8.30
2019-03-24T08:58:54.651Z,8.40
2019-03-24T09:01:23.060Z,8.60
2019-03-24T09:03:51.485Z,8.70
2019-03-24T09:06:19.944Z,8.80
2019-03-24T09:08:49.043Z,8.80
2019-03-24T09:11:17.633Z,8.80
2019-03-24T09:13:46.091Z,8.90
2019-03-24T09:16:14.613Z,9.20
2019-03-24T09:18:51.940Z,9.40
2019-03-24T09:21:13.273Z,9.30
2019-03-24T09:23:41.691Z,9.40
2019-03-24T09:26:10.156Z,9.50
2019-03-24T09:28:38.593Z,9.60
2019-03-24T09:31:07.046Z,9.70
2019-03-24T09:33:35.569Z,9.80
2019-03-24T09:36:04.258Z,9.90
2019-03-24T09:38:32.768Z,10.00
2019-03-24T09:41:01.323Z,10.10
2019-03-24T09:43:29.761Z,10.30
2019-03-24T09:45:58.304Z,10.40
2019-03-24T09:48:26.812Z,10.50
2019-03-24T09:50:55.280Z,10.60
2019-03-24T09:53:23.720Z,10.70
2019-03-24T09:55:52.175Z,10.90
2019-03-24T09:58:20.596Z,10.90
2019-03-24T10:00:49.086Z,11.00
2019-03-24T10:03:17.533Z,11.00
2019-03-24T10:05:45.941Z,11.00
2019-03-24T10:08:14.389Z,11.10
2019-03-24T10:10:42.832Z,11.20
2019-03-24T10:13:11.273Z,11.30
2019-03-24T10:15:39.784Z,11.30
2019-03-24T10:18:08.233Z,11.50
2019-03-24T10:20:36.670Z,11.50
2019-03-24T10:23:05.119Z,11.40
2019-03-24T10:25:33.636Z,11.60
2019-03-24T10:28:02.088Z,11.60
2019-03-24T10:30:30.509Z,11.60
2019-03-24T10:32:58.953Z,11.80
2019-03-24T10:35:27.404Z,11.80
2019-03-24T10:37:55.912Z,11.80
2019-03-24T10:40:28.857Z,11.80
2019-03-24T10:42:54.521Z,12.00
2019-03-24T10:45:23.016Z,12.20
2019-03-24T10:47:51.742Z,12.20
2019-03-24T10:50:20.413Z,12.30
2019-03-24T10:52:49.887Z,12.40
2019-03-24T10:55:18.333Z,12.40
2019-03-24T10:57:46.871Z,12.50
2019-03-24T11:00:20.972Z,12.60
2019-03-24T11:02:49.818Z,12.60
2019-03-24T11:05:18.392Z,12.50
2019-03-24T11:07:46.824Z,12.50
2019-03-24T11:10:15.338Z,12.50
2019-03-24T11:12:43.766Z,12.60
2019-03-24T11:15:12.433Z,12.70
2019-03-24T11:17:40.982Z,12.80
2019-03-24T11:20:09.853Z,12.80
2019-03-24T11:22:38.327Z,12.80
2019-03-24T11:25:08.792Z,12.70
2019-03-24T11:27:37.718Z,12.70
2019-03-24T11:30:09.337Z,12.70
2019-03-24T11:32:38.127Z,12.90
2019-03-24T11:35:07.601Z,12.90
2019-03-24T11:37:36.141Z,12.90
2019-03-24T11:40:09.546Z,13.20
2019-03-24T11:42:38.066Z,13.40
2019-03-24T11:45:08.141Z,13.40
2019-03-24T11:47:36.645Z,13.40
2019-03-24T11:50:07.337Z,13.40
2019-03-24T11:52:35.880Z,13.50
2019-03-24T11:55:06.792Z,13.70
2019-03-24T11:57:35.327Z,13.70
2019-03-24T12:00:12.885Z,13.60
2019-03-24T12:02:41.517Z,13.70
2019-03-24T12:05:10.386Z,13.70
2019-03-24T12:07:38.900Z,13.90
2019-03-24T12:10:09.437Z,14.10
2019-03-24T12:12:37.958Z,14.10
2019-03-24T12:15:07.944Z,14.00
2019-03-24T12:17:36.514Z,13.90
2019-03-24T12:20:08.617Z,13.90
2019-03-24T12:22:37.309Z,13.80
2019-03-24T12:25:06.201Z,13.90
2019-03-24T12:27:34.805Z,13.90
2019-03-24T12:30:04.773Z,14.00
2019-03-24T12:32:33.216Z,14.00
2019-03-24T12:35:01.639Z,14.10
2019-03-24T12:37:30.097Z,14.10
2019-03-24T12:39:58.534Z,14.40
2019-03-24T12:42:26.996Z,14.60
2019-03-24T12:44:55.414Z,14.50
2019-03-24T12:47:23.877Z,14.60
2019-03-24T12:49:52.335Z,14.50
2019-03-24T12:52:20.753Z,14.60
2019-03-24T12:54:49.285Z,14.60
2019-03-24T12:57:17.788Z,14.60
2019-03-24T12:59:46.335Z,14.50
2019-03-24T13:02:14.759Z,14.50
2019-03-24T13:04:43.213Z,14.70
2019-03-24T13:07:11.653Z,14.80
2019-03-24T13:09:40.117Z,15.00
2019-03-24T13:12:08.807Z,15.10
2019-03-24T13:14:37.249Z,15.10
2019-03-24T13:17:05.673Z,15.00
2019-03-24T13:19:36.125Z,15.00
2019-03-24T13:22:04.403Z,15.10
2019-03-24T13:24:32.854Z,15.10
2019-03-24T13:27:01.301Z,15.20
2019-03-24T13:29:29.745Z,15.30
2019-03-24T13:31:58.258Z,15.30
2019-03-24T13:34:26.705Z,15.30
2019-03-24T13:36:55.142Z,15.10
2019-03-24T13:39:23.670Z,15.20
2019-03-24T13:41:52.228Z,15.00
2019-03-24T13:44:20.697Z,15.10
2019-03-24T13:46:49.129Z,15.10
2019-03-24T13:49:17.569Z,15.20
2019-03-24T13:51:46.020Z,15.30
2019-03-24T13:54:14.475Z,15.40
2019-03-24T13:56:42.929Z,15.30
2019-03-24T13:59:11.372Z,15.30
2019-03-24T14:01:39.829Z,15.50
2019-03-24T14:04:08.331Z,15.70
2019-03-24T14:06:36.804Z,15.90
2019-03-24T14:09:07.461Z,16.00
2019-03-24T14:11:36.002Z,16.00
2019-03-24T14:14:04.695Z,16.00
2019-03-24T14:16:33.158Z,16.20
2019-03-24T14:19:02.477Z,16.20
2019-03-24T14:21:30.936Z,16.00
2019-03-24T14:23:59.355Z,16.00
2019-03-24T14:26:27.892Z,16.10
2019-03-24T14:28:56.317Z,16.10
2019-03-24T14:31:24.764Z,16.10
2019-03-24T14:33:53.192Z,16.20
2019-03-24T14:36:21.649Z,16.10
2019-03-24T14:38:50.083Z,16.00
2019-03-24T14:41:18.543Z,15.90
2019-03-24T14:43:46.976Z,15.80
2019-03-24T14:46:15.496Z,15.60
2019-03-24T14:48:43.997Z,15.40
2019-03-24T14:51:12.445Z,15.40
2019-03-24T14:53:40.961Z,15.30
2019-03-24T14:56:09.474Z,15.20
2019-03-24T14:58:37.976Z,15.10
2019-03-24T15:01:06.422Z,15.00
2019-03-24T15:03:34.932Z,14.80
2019-03-24T15:06:03.391Z,14.80
2019-03-24T15:08:31.913Z,14.90
2019-03-24T15:11:00.377Z,14.90
2019-03-24T15:13:28.822Z,14.80
2019-03-24T15:15:57.256Z,14.90
2019-03-24T15:18:25.708Z,14.90
2019-03-24T15:21:04.901Z,15.00
2019-03-24T15:23:24.398Z,15.00
2019-03-24T15:25:52.847Z,14.90
2019-03-24T15:28:21.293Z,15.00
2019-03-24T15:30:49.718Z,15.10
2019-03-24T15:33:18.226Z,15.00
2019-03-24T15:35:46.664Z,14.90
2019-03-24T15:38:17.651Z,14.70
2019-03-24T15:40:45.829Z,14.60
2019-03-24T15:43:14.304Z,14.50
2019-03-24T15:45:42.716Z,14.50
2019-03-24T15:48:12.772Z,14.40
2019-03-24T15:50:41.221Z,14.40
2019-03-24T15:53:09.714Z,14.40
2019-03-24T15:55:38.189Z,14.30
2019-03-24T15:58:06.628Z,14.30
2019-03-24T16:00:43.030Z,14.30
2019-03-24T16:03:11.644Z,14.30
2019-03-24T16:05:40.213Z,14.30
2019-03-24T16:08:10.866Z,14.30
2019-03-24T16:10:39.421Z,14.30
2019-03-24T16:13:08.024Z,14.20
2019-03-24T16:15:36.495Z,14.20
2019-03-24T16:18:05.066Z,14.20
2019-03-24T16:20:33.524Z,14.10
2019-03-24T16:23:01.951Z,14.20
2019-03-24T16:25:30.416Z,14.10
2019-03-24T16:27:58.861Z,14.00
2019-03-24T16:30:27.359Z,14.00
2019-03-24T16:32:55.797Z,14.00
2019-03-24T16:35:24.261Z,14.00
2019-03-24T16:37:52.704Z,13.90
2019-03-24T16:40:21.176Z,13.80
2019-03-24T16:42:49.588Z,13.80
2019-03-24T16:45:18.044Z,13.80
2019-03-24T16:47:46.484Z,13.70
2019-03-24T16:50:15.140Z,13.70
2019-03-24T16:52:43.630Z,13.70
2019-03-24T16:55:12.321Z,13.70
2019-03-24T16:57:40.820Z,13.60
2019-03-24T17:00:09.713Z,13.60
2019-03-24T17:02:38.168Z,13.50
2019-03-24T17:05:07.685Z,13.50
2019-03-24T17:07:36.098Z,13.40
2019-03-24T17:10:07.186Z,13.40
2019-03-24T17:12:35.799Z,13.30
2019-03-24T17:15:06.392Z,13.20
2019-03-24T17:17:34.837Z,13.20
2019-03-24T17:20:04.442Z,13.20
2019-03-24T17:22:33.231Z,13.10
2019-03-24T17:25:01.727Z,13.10
2019-03-24T17:27:30.232Z,13.10
2019-03-24T17:29:58.688Z,13.00
2019-03-24T17:32:27.138Z,13.00
2019-03-24T17:34:55.695Z,12.90
2019-03-24T17:37:24.298Z,12.90
2019-03-24T17:39:52.752Z,12.70
2019-03-24T17:42:21.302Z,12.70
2019-03-24T17:44:49.742Z,12.60
2019-03-24T17:47:18.225Z,12.60
2019-03-24T17:49:46.652Z,12.50
2019-03-24T17:52:15.162Z,12.50
2019-03-24T17:54:43.589Z,12.40
2019-03-24T17:57:12.060Z,12.40
2019-03-24T17:59:40.484Z,12.50
2019-03-24T18:02:14.248Z,12.50
2019-03-24T18:04:39.104Z,12.50
2019-03-24T18:07:07.585Z,12.50
2019-03-24T18:09:36.056Z,12.50
2019-03-24T18:12:04.561Z,12.50
2019-03-24T18:14:33.008Z,12.60
2019-03-24T18:17:01.470Z,12.50
2019-03-24T18:19:29.937Z,12.40
2019-03-24T18:21:58.359Z,12.40
2019-03-24T18:24:26.960Z,12.40
2019-03-24T18:26:55.455Z,12.30
2019-03-24T18:29:23.921Z,12.20
2019-03-24T18:31:52.364Z,12.00
2019-03-24T18:34:20.819Z,11.90
2019-03-24T18:36:49.254Z,11.90
2019-03-24T18:39:17.702Z,12.10
2019-03-24T18:41:46.208Z,12.20
2019-03-24T18:44:14.694Z,12.20
2019-03-24T18:46:43.173Z,12.20
2019-03-24T18:49:11.754Z,12.20
2019-03-24T18:51:40.197Z,12.20
2019-03-24T18:54:08.662Z,12.20
2019-03-24T18:56:37.179Z,12.10
2019-03-24T18:59:05.639Z,12.10
2019-03-24T19:01:34.119Z,12.10
2019-03-24T19:04:02.689Z,12.10
2019-03-24T19:06:31.195Z,12.00
2019-03-24T19:08:59.681Z,12.00
2019-03-24T19:11:28.163Z,11.90
2019-03-24T19:13:56.680Z,11.90
2019-03-24T19:16:25.151Z,11.80
2019-03-24T19:18:53.609Z,11.90
2019-03-24T19:21:22.074Z,11.80
2019-03-24T19:23:50.544Z,11.80
2019-03-24T19:26:19.013Z,11.80
2019-03-24T19:28:47.456Z,11.70
2019-03-24T19:31:15.980Z,11.70
2019-03-24T19:33:44.422Z,11.60
2019-03-24T19:36:12.868Z,11.60
2019-03-24T19:38:42.281Z,11.60
2019-03-24T19:41:10.815Z,11.60
2019-03-24T19:43:39.898Z,11.50
2019-03-24T19:46:08.396Z,11.40
2019-03-24T19:48:36.899Z,11.40
2019-03-24T19:51:07.056Z,11.30
2019-03-24T19:53:35.668Z,11.30
2019-03-24T19:56:04.920Z,11.20
2019-03-24T19:58:33.335Z,11.20
2019-03-24T20:01:01.820Z,11.10
2019-03-24T20:03:30.260Z,11.10
2019-03-24T20:05:58.705Z,11.10
2019-03-24T20:08:27.165Z,10.90
2019-03-24T20:10:55.671Z,10.80
2019-03-24T20:13:24.119Z,10.60
2019-03-24T20:15:52.552Z,10.50
2019-03-24T20:18:21.079Z,10.40
2019-03-24T20:20:51.968Z,10.30
2019-03-24T20:23:19.709Z,10.30
2019-03-24T20:25:48.149Z,10.20
2019-03-24T20:28:16.613Z,10.20
2019-03-24T20:30:45.096Z,10.20
2019-03-24T20:33:14.465Z,10.20
2019-03-24T20:35:42.993Z,10.20
2019-03-24T20:38:11.444Z,10.20
2019-03-24T20:40:39.883Z,10.20
2019-03-24T20:43:08.329Z,10.20
2019-03-24T20:45:36.817Z,10.20
2019-03-24T20:48:05.345Z,10.20
2019-03-24T20:50:33.875Z,10.20
2019-03-24T20:53:05.746Z,10.40
2019-03-24T20:55:34.466Z,10.60
2019-03-24T20:58:02.688Z,10.70
2019-03-24T21:00:35.570Z,10.70
2019-03-24T21:03:05.069Z,10.70
2019-03-24T21:05:33.621Z,10.70
2019-03-24T21:08:02.134Z,10.70
2019-03-24T21:10:30.576Z,10.60
2019-03-24T21:12:59.089Z,10.70
2019-03-24T21:15:27.622Z,10.60
2019-03-24T21:17:56.056Z,10.60
2019-03-24T21:20:24.530Z,10.60
2019-03-24T21:22:52.977Z,10.70
2019-03-24T21:25:21.432Z,10.70
2019-03-24T21:27:49.844Z,10.70
2019-03-24T21:30:21.392Z,10.70
2019-03-24T21:32:51.525Z,10.60
2019-03-24T21:35:19.966Z,10.60
2019-03-24T21:37:48.517Z,10.60
2019-03-24T21:40:17.066Z,10.60
2019-03-24T21:42:45.499Z,10.60
2019-03-24T21:45:15.549Z,10.60
2019-03-24T21:47:43.980Z,10.70
2019-03-24T21:50:12.583Z,10.60
2019-03-24T21:52:41.049Z,10.60
2019-03-24T21:55:09.736Z,10.50
2019-03-24T21:57:38.204Z,10.50
2019-03-24T22:00:08.772Z,10.50
2019-03-24T22:02:37.234Z,10.50
2019-03-24T22:05:06.010Z,10.50
2019-03-24T22:07:34.472Z,10.50
2019-03-24T22:10:02.958Z,10.40
2019-03-24T22:12:31.402Z,10.40
2019-03-24T22:14:59.947Z,10.30
2019-03-24T22:17:28.422Z,10.30
2019-03-24T22:19:56.845Z,10.30
2019-03-24T22:22:25.292Z,10.30
2019-03-24T22:24:53.794Z,10.40
2019-03-24T22:27:22.268Z,10.50
2019-03-24T22:29:50.714Z,10.40
2019-03-24T22:32:19.156Z,10.30
2019-03-24T22:34:47.658Z,10.30
2019-03-24T22:37:16.376Z,10.30
2019-03-24T22:39:44.916Z,10.20
2019-03-24T22:42:13.365Z,10.10
2019-03-24T22:44:41.803Z,10.20
2019-03-24T22:47:10.304Z,10.10
2019-03-24T22:49:38.744Z,10.20
2019-03-24T22:52:07.821Z,10.20
2019-03-24T22:54:36.532Z,10.10
2019-03-24T22:57:05.124Z,10.10
2019-03-24T22:59:33.625Z,10.20
2019-03-24T23:02:02.188Z,10.20
2019-03-24T23:04:30.639Z,10.20
2019-03-24T23:06:59.060Z,10.10
2019-03-24T23:09:27.662Z,10.00
2019-03-24T23:11:56.104Z,9.90
2019-03-24T23:14:24.536Z,9.90
2019-03-24T23:16:52.958Z,9.80
2019-03-24T23:19:21.400Z,9.80
2019-03-24T23:21:49.808Z,9.70
2019-03-24T23:24:18.279Z,9.70
2019-03-24T23:26:46.709Z,9.70
2019-03-24T23:29:15.148Z,9.70
2019-03-24T23:31:43.567Z,9.70
2019-03-24T23:34:14.841Z,9.70
2019-03-24T23:36:43.266Z,9.70
2019-03-24T23:39:11.834Z,9.70
2019-03-24T23:41:40.267Z,9.70
2019-03-24T23:44:08.756Z,9.70
2019-03-24T23:46:37.200Z,9.80
2019-03-24T23:49:05.620Z,9.80
2019-03-24T23:51:34.065Z,9.80
2019-03-24T23:54:02.543Z,9.70
2019-03-24T23:56:30.998Z,9.70
2019-03-24T23:58:59.412Z,9.70
